Time,TemperatureF,DewpointF,PressureIn,WindDirection,WindDirectionDegrees,WindSpeedMPH,WindSpeedGustMPH,Humidity,HourlyPrecipIn,Conditions,Clouds,dailyrainin,SoftwareType,DateUTC
2013-03-07 00:00:00,29.8,10.1,29.68,North,0,0.0,0.0,43,0.00,,SKC,0.00,VWS V14.01,2013-03-07 06:00:00,
2013-03-07 00:05:00,29.8,10.1,29.68,North,0,0.0,0.0,43,0.00,,SKC,0.00,VWS V14.01,2013-03-07 06:05:00,
2013-03-07 00:10:00,29.8,10.1,29.68,North,0,0.0,0.0,43,0.00,,SKC,0.00,VWS V14.01,2013-03-07 06:10:00,
2013-03-07 00:15:00,29.7,9.9,29.68,North,0,0.0,0.0,43,0.00,,SKC,0.00,VWS V14.01,2013-03-07 06:15:00,
2013-03-07 00:20:00,29.7,9.9,29.68,North,0,0.0,0.0,43,0.00,,SKC,0.00,VWS V14.01,2013-03-07 06:20:00,
2013-03-07 00:25:00,29.7,9.9,29.68,North,0,0.0,0.0,43,0.00,,SKC,0.00,VWS V14.01,2013-03-07 06:25:00,
2013-03-07 00:30:00,29.5,9.8,29.68,North,0,0.0,0.0,43,0.00,,SKC,0.00,VWS V14.01,2013-03-07 06:30:00,
2013-03-07 00:35:00,29.5,9.8,29.68,North,0,0.0,0.0,43,0.00,,SKC,0.00,VWS V14.01,2013-03-07 06:35:00,
2013-03-07 00:40:00,29.5,9.8,29.68,North,0,0.0,0.0,43,0.00,,SKC,0.00,VWS V14.01,2013-03-07 06:40:00,
2013-03-07 00:45:00,29.5,9.8,29.68,North,0,0.0,0.0,43,0.00,,SKC,0.00,VWS V14.01,2013-03-07 06:45:00,
2013-03-07 00:50:00,29.5,9.8,29.68,North,0,0.0,0.0,43,0.00,,SKC,0.00,VWS V14.01,2013-03-07 06:50:00,
2013-03-07 00:55:00,29.5,9.8,29.68,North,0,0.0,0.0,43,0.00,,SKC,0.00,VWS V14.01,2013-03-07 06:55:00,
2013-03-07 01:00:00,29.5,9.8,29.68,North,0,0.0,0.0,43,0.00,,SKC,0.00,VWS V14.01,2013-03-07 07:00:00,
2013-03-07 01:05:00,29.3,9.6,29.68,North,0,0.0,0.0,43,0.00,,SKC,0.00,VWS V14.01,2013-03-07 07:05:00,
2013-03-07 01:10:00,29.1,9.4,29.68,North,0,0.0,0.0,43,0.00,,SKC,0.00,VWS V14.01,2013-03-07 07:10:00,
2013-03-07 01:15:00,29.1,9.4,29.68,North,0,0.0,0.0,43,0.00,,SKC,0.00,VWS V14.01,2013-03-07 07:15:00,
2013-03-07 01:20:00,28.9,9.3,29.68,North,0,0.0,0.0,43,0.00,,SKC,0.00,VWS V14.01,2013-03-07 07:20:00,
2013-03-07 01:25:00,28.9,9.3,29.68,North,0,0.0,0.0,43,0.00,,SKC,0.00,VWS V14.01,2013-03-07 07:25:00,
2013-03-07 01:30:00,28.9,9.8,29.68,North,0,0.0,0.0,44,0.00,,SKC,0.00,VWS V14.01,2013-03-07 07:30:00,
2013-03-07 01:35:00,28.9,9.8,29.71,North,0,0.0,0.0,44,0.00,,SKC,0.00,VWS V14.01,2013-03-07 07:35:00,
2013-03-07 01:40:00,28.9,9.8,29.71,North,0,0.0,0.0,44,0.00,,SKC,0.00,VWS V14.01,2013-03-07 07:40:00,
2013-03-07 01:45:00,28.9,9.8,29.71,North,0,0.0,0.0,44,0.00,,SKC,0.00,VWS V14.01,2013-03-07 07:45:00,
2013-03-07 01:50:00,28.8,9.6,29.71,North,0,0.0,0.0,44,0.00,,SKC,0.00,VWS V14.01,2013-03-07 07:50:00,
2013-03-07 01:55:00,28.8,9.6,29.71,North,0,0.0,0.0,44,0.00,,SKC,0.00,VWS V14.01,2013-03-07 07:55:00,
2013-03-07 02:00:00,28.8,9.6,29.71,North,0,0.0,0.0,44,0.00,,SKC,0.00,VWS V14.01,2013-03-07 08:00:00,
2013-03-07 02:05:00,28.8,9.6,29.71,North,0,0.0,0.0,44,0.00,,SKC,0.00,VWS V14.01,2013-03-07 08:05:00,
2013-03-07 02:10:00,28.8,9.6,29.71,North,0,0.0,0.0,44,0.00,,SKC,0.00,VWS V14.01,2013-03-07 08:10:00,
2013-03-07 02:15:00,28.8,9.6,29.71,North,0,0.0,0.0,44,0.00,,SKC,0.00,VWS V14.01,2013-03-07 08:15:00,
2013-03-07 02:20:00,28.8,9.6,29.71,North,0,0.0,0.0,44,0.00,,SKC,0.00,VWS V14.01,2013-03-07 08:20:00,
2013-03-07 02:25:00,28.8,9.6,29.71,North,0,0.0,0.0,44,0.00,,SKC,0.00,VWS V14.01,2013-03-07 08:25:00,
2013-03-07 02:30:00,28.6,8.9,29.71,North,0,0.0,0.0,43,0.00,,SKC,0.00,VWS V14.01,2013-03-07 08:30:00,
2013-03-07 02:35:00,28.8,9.1,29.71,North,0,0.0,0.0,43,0.00,,SKC,0.00,VWS V14.01,2013-03-07 08:35:00,
2013-03-07 02:40:00,28.6,8.9,29.71,North,0,0.0,0.0,43,0.00,,SKC,0.00,VWS V14.01,2013-03-07 08:40:00,
2013-03-07 02:45:00,28.6,8.9,29.71,North,0,0.0,0.0,43,0.00,,SKC,0.00,VWS V14.01,2013-03-07 08:45:00,
2013-03-07 02:50:00,28.6,8.9,29.71,North,0,0.0,0.0,43,0.00,,SKC,0.00,VWS V14.01,2013-03-07 08:50:00,
2013-03-07 02:55:00,28.6,8.9,29.71,North,0,0.0,0.0,43,0.00,,SKC,0.00,VWS V14.01,2013-03-07 08:55:00,
2013-03-07 03:00:00,28.4,8.8,29.71,North,0,0.0,0.0,43,0.00,,SKC,0.00,VWS V14.01,2013-03-07 09:00:00,
2013-03-07 03:05:00,28.4,8.8,29.71,North,0,0.0,0.0,43,0.00,,SKC,0.00,VWS V14.01,2013-03-07 09:05:00,
2013-03-07 03:10:00,28.4,8.8,29.71,North,0,0.0,0.0,43,0.00,,SKC,0.00,VWS V14.01,2013-03-07 09:10:00,
2013-03-07 03:15:00,28.4,8.8,29.71,North,0,0.0,0.0,43,0.00,,SKC,0.00,VWS V14.01,2013-03-07 09:15:00,
2013-03-07 03:20:00,28.4,8.8,29.71,North,0,0.0,0.0,43,0.00,,SKC,0.00,VWS V14.01,2013-03-07 09:20:00,
2013-03-07 03:25:00,28.2,8.6,29.71,North,0,0.0,0.0,43,0.00,,SKC,0.00,VWS V14.01,2013-03-07 09:25:00,
2013-03-07 03:30:00,28.2,8.6,29.71,North,0,0.0,0.0,43,0.00,,SKC,0.00,VWS V14.01,2013-03-07 09:30:00,
2013-03-07 03:35:00,28.2,8.6,29.74,North,0,0.0,0.0,43,0.00,,SKC,0.00,VWS V14.01,2013-03-07 09:35:00,
2013-03-07 03:40:00,28.0,8.4,29.74,North,0,0.0,0.0,43,0.00,,SKC,0.00,VWS V14.01,2013-03-07 09:40:00,
2013-03-07 03:45:00,28.0,8.4,29.74,North,0,0.0,0.0,43,0.00,,SKC,0.00,VWS V14.01,2013-03-07 09:45:00,
2013-03-07 03:50:00,28.0,8.4,29.74,North,0,0.0,0.0,43,0.00,,SKC,0.00,VWS V14.01,2013-03-07 09:50:00,
2013-03-07 03:55:00,28.0,7.9,29.74,North,0,0.0,0.0,42,0.00,,SKC,0.00,VWS V14.01,2013-03-07 09:55:00,
2013-03-07 04:00:00,28.0,7.9,29.74,North,0,0.0,0.0,42,0.00,,SKC,0.00,VWS V14.01,2013-03-07 10:00:00,
2013-03-07 04:05:00,27.9,7.8,29.71,North,0,0.0,0.0,42,0.00,,SKC,0.00,VWS V14.01,2013-03-07 10:05:00,
2013-03-07 04:10:00,27.9,7.8,29.71,North,0,0.0,0.0,42,0.00,,SKC,0.00,VWS V14.01,2013-03-07 10:10:00,
2013-03-07 04:15:00,27.9,7.8,29.71,North,0,0.0,0.0,42,0.00,,SKC,0.00,VWS V14.01,2013-03-07 10:15:00,
2013-03-07 04:20:00,27.7,7.6,29.71,North,0,0.0,0.0,42,0.00,,SKC,0.00,VWS V14.01,2013-03-07 10:20:00,
2013-03-07 04:25:00,27.7,7.1,29.71,North,0,0.0,0.0,41,0.00,,SKC,0.00,VWS V14.01,2013-03-07 10:25:00,
2013-03-07 04:30:00,27.5,7.4,29.71,North,0,0.0,0.0,42,0.00,,SKC,0.00,VWS V14.01,2013-03-07 10:30:00,
2013-03-07 04:35:00,27.3,6.7,29.71,North,0,0.0,0.0,41,0.00,,SKC,0.00,VWS V14.01,2013-03-07 10:35:00,
2013-03-07 04:40:00,27.0,6.4,29.71,North,0,0.0,0.0,41,0.00,,SKC,0.00,VWS V14.01,2013-03-07 10:40:00,
2013-03-07 04:45:00,26.8,6.2,29.71,North,0,0.0,0.0,41,0.00,,SKC,0.00,VWS V14.01,2013-03-07 10:45:00,
2013-03-07 04:50:00,26.8,6.2,29.71,North,0,0.0,0.0,41,0.00,,SKC,0.00,VWS V14.01,2013-03-07 10:50:00,
2013-03-07 04:55:00,26.2,6.3,29.71,North,0,0.0,0.0,42,0.00,,SKC,0.00,VWS V14.01,2013-03-07 10:55:00,
2013-03-07 05:00:00,26.2,6.3,29.71,North,0,0.0,0.0,42,0.00,,SKC,0.00,VWS V14.01,2013-03-07 11:00:00,
2013-03-07 05:05:00,26.1,6.1,29.74,North,0,0.0,0.0,42,0.00,,SKC,0.00,VWS V14.01,2013-03-07 11:05:00,
2013-03-07 05:10:00,25.7,5.8,29.74,North,0,0.0,0.0,42,0.00,,SKC,0.00,VWS V14.01,2013-03-07 11:10:00,
2013-03-07 05:15:00,25.2,5.3,29.74,North,0,0.0,0.0,42,0.00,,SKC,0.00,VWS V14.01,2013-03-07 11:15:00,
2013-03-07 05:20:00,25.0,5.1,29.74,North,0,0.0,0.0,42,0.00,,SKC,0.00,VWS V14.01,2013-03-07 11:20:00,
2013-03-07 05:25:00,24.3,4.5,29.74,North,0,0.0,0.0,42,0.00,,SKC,0.00,VWS V14.01,2013-03-07 11:25:00,
2013-03-07 05:30:00,23.9,4.2,29.74,North,0,0.0,0.0,42,0.00,,SKC,0.00,VWS V14.01,2013-03-07 11:30:00,
2013-03-07 05:35:00,23.4,4.2,29.74,North,0,0.0,0.0,43,0.00,,SKC,0.00,VWS V14.01,2013-03-07 11:35:00,
2013-03-07 05:40:00,22.8,3.7,29.74,North,0,0.0,0.0,43,0.00,,SKC,0.00,VWS V14.01,2013-03-07 11:40:00,
2013-03-07 05:45:00,22.6,3.5,29.74,North,0,0.0,0.0,43,0.00,,SKC,0.00,VWS V14.01,2013-03-07 11:45:00,
2013-03-07 05:50:00,22.1,3.0,29.74,North,0,0.0,0.0,43,0.00,,SKC,0.00,VWS V14.01,2013-03-07 11:50:00,
2013-03-07 05:55:00,21.6,2.5,29.74,North,0,0.0,0.0,43,0.00,,SKC,0.00,VWS V14.01,2013-03-07 11:55:00,
2013-03-07 06:00:00,21.2,2.7,29.74,North,0,0.0,0.0,44,0.00,,SKC,0.00,VWS V14.01,2013-03-07 12:00:00,
2013-03-07 06:05:00,21.2,2.7,29.74,North,0,0.0,0.0,44,0.00,,SKC,0.00,VWS V14.01,2013-03-07 12:05:00,
2013-03-07 06:10:00,20.8,2.9,29.74,North,0,0.0,0.0,45,0.00,,SKC,0.00,VWS V14.01,2013-03-07 12:10:00,
2013-03-07 06:15:00,20.5,2.5,29.74,North,0,0.0,0.0,45,0.00,,SKC,0.00,VWS V14.01,2013-03-07 12:15:00,
2013-03-07 06:20:00,20.3,2.4,29.74,North,0,0.0,0.0,45,0.00,,SKC,0.00,VWS V14.01,2013-03-07 12:20:00,
2013-03-07 06:25:00,19.8,1.9,29.74,North,0,0.0,0.0,45,0.00,,SKC,0.00,VWS V14.01,2013-03-07 12:25:00,
2013-03-07 06:30:00,19.6,1.7,29.74,North,0,0.0,0.0,45,0.00,,SKC,0.00,VWS V14.01,2013-03-07 12:30:00,
2013-03-07 06:35:00,20.3,3.3,29.71,North,0,0.0,0.0,47,0.00,,SKC,0.00,VWS V14.01,2013-03-07 12:35:00,
2013-03-07 06:40:00,21.0,4.4,29.71,North,0,0.0,0.0,48,0.00,,SKC,0.00,VWS V14.01,2013-03-07 12:40:00,
2013-03-07 06:45:00,21.4,4.8,29.71,North,0,0.0,0.0,48,0.00,,SKC,0.00,VWS V14.01,2013-03-07 12:45:00,
2013-03-07 06:50:00,22.5,5.8,29.74,North,0,0.0,0.0,48,0.00,,SKC,0.00,VWS V14.01,2013-03-07 12:50:00,
2013-03-07 06:55:00,23.5,6.8,29.74,North,0,0.0,0.0,48,0.00,,SKC,0.00,VWS V14.01,2013-03-07 12:55:00,
2013-03-07 07:00:00,24.8,8.4,29.74,North,0,0.0,0.0,49,0.00,,SKC,0.00,VWS V14.01,2013-03-07 13:00:00,
2013-03-07 07:05:00,27.0,10.4,29.74,North,0,0.0,0.0,49,0.00,,SKC,0.00,VWS V14.01,2013-03-07 13:05:00,
2013-03-07 07:10:00,28.8,11.1,29.74,North,0,0.0,0.0,47,0.00,,SKC,0.00,VWS V14.01,2013-03-07 13:10:00,
2013-03-07 07:15:00,29.5,10.3,29.74,North,0,0.0,0.0,44,0.00,,SKC,0.00,VWS V14.01,2013-03-07 13:15:00,
2013-03-07 07:20:00,29.5,9.8,29.76,North,0,0.0,0.0,43,0.00,,SKC,0.00,VWS V14.01,2013-03-07 13:20:00,
2013-03-07 07:25:00,29.5,11.3,29.76,North,0,0.0,0.0,46,0.00,,SKC,0.00,VWS V14.01,2013-03-07 13:25:00,
2013-03-07 07:30:00,32.5,13.6,29.76,North,0,0.0,0.0,45,0.00,,SKC,0.00,VWS V14.01,2013-03-07 13:30:00,
2013-03-07 07:35:00,33.3,12.1,29.76,North,0,0.0,0.0,41,0.00,,SKC,0.00,VWS V14.01,2013-03-07 13:35:00,
2013-03-07 07:40:00,34.3,9.5,29.76,North,0,0.0,0.0,35,0.00,,SKC,0.00,VWS V14.01,2013-03-07 13:40:00,
2013-03-07 07:45:00,35.6,10.0,29.76,North,0,0.0,0.0,34,0.00,,SKC,0.00,VWS V14.01,2013-03-07 13:45:00,
2013-03-07 07:50:00,36.0,9.0,29.76,North,0,0.0,0.0,32,0.00,,SKC,0.00,VWS V14.01,2013-03-07 13:50:00,
2013-03-07 07:55:00,36.1,7.7,29.76,North,0,0.0,0.0,30,0.00,,SKC,0.00,VWS V14.01,2013-03-07 13:55:00,
2013-03-07 08:00:00,37.6,8.2,29.76,North,0,0.0,0.0,29,0.00,,SKC,0.00,VWS V14.01,2013-03-07 14:00:00,
2013-03-07 08:05:00,38.8,9.3,29.76,North,0,0.0,0.0,29,0.00,,SKC,0.00,VWS V14.01,2013-03-07 14:05:00,
2013-03-07 08:10:00,39.0,5.3,29.76,North,0,0.0,0.0,24,0.00,,SKC,0.00,VWS V14.01,2013-03-07 14:10:00,
2013-03-07 08:15:00,40.3,5.4,29.76,North,0,0.0,0.0,23,0.00,,SKC,0.00,VWS V14.01,2013-03-07 14:15:00,
2013-03-07 08:20:00,41.0,4.1,29.76,North,0,0.0,0.0,21,0.00,,SKC,0.00,VWS V14.01,2013-03-07 14:20:00,
2013-03-07 08:25:00,40.5,0.3,29.76,North,0,0.0,0.0,18,0.00,,SKC,0.00,VWS V14.01,2013-03-07 14:25:00,
2013-03-07 08:31:00,40.6,0.5,29.76,North,0,0.0,0.0,18,0.00,,SKC,0.00,VWS V14.01,2013-03-07 14:31:00,
2013-03-07 08:36:00,40.8,0.6,29.76,North,0,0.0,0.0,18,0.00,,SKC,0.00,VWS V14.01,2013-03-07 14:36:00,
2013-03-07 08:41:00,41.4,1.0,29.76,North,0,0.0,0.0,18,0.00,,SKC,0.00,VWS V14.01,2013-03-07 14:41:00,
2013-03-07 08:46:00,43.3,2.7,29.76,North,0,0.0,0.0,18,0.00,,SKC,0.04,VWS V14.01,2013-03-07 14:46:00,
2013-03-07 08:51:00,43.7,3.0,29.76,North,0,0.0,0.0,18,0.00,,SKC,0.04,VWS V14.01,2013-03-07 14:51:00,
2013-03-07 08:56:00,43.5,2.8,29.76,North,0,0.0,0.0,18,0.00,,SKC,0.04,VWS V14.01,2013-03-07 14:56:00,
2013-03-07 09:01:00,45.1,2.9,29.76,North,0,0.0,0.0,17,0.00,,SKC,0.04,VWS V14.01,2013-03-07 15:01:00,
2013-03-07 09:11:00,45.1,2.9,29.76,North,0,0.0,0.0,17,0.00,,SKC,0.04,VWS V14.01,2013-03-07 15:11:00,
2013-03-07 09:16:00,46.4,4.0,29.76,North,0,0.0,0.0,17,0.00,,SKC,0.04,VWS V14.01,2013-03-07 15:16:00,
2013-03-07 09:21:00,44.6,2.5,29.76,North,0,0.0,0.0,17,0.00,,SKC,0.04,VWS V14.01,2013-03-07 15:21:00,
2013-03-07 09:26:00,48.4,4.3,29.76,North,0,0.0,0.0,16,0.00,,SKC,0.04,VWS V14.01,2013-03-07 15:26:00,
2013-03-07 09:31:00,46.9,4.4,29.76,North,0,0.0,0.0,17,0.00,,SKC,0.04,VWS V14.01,2013-03-07 15:31:00,
2013-03-07 09:36:00,46.2,3.8,29.79,North,0,0.0,0.0,17,0.00,,SKC,0.04,VWS V14.01,2013-03-07 15:36:00,
2013-03-07 09:41:00,45.3,3.1,29.79,North,0,0.0,0.0,17,0.00,,SKC,0.08,VWS V14.01,2013-03-07 15:41:00,
2013-03-07 09:46:00,45.1,2.9,29.79,North,0,0.0,0.0,17,0.00,,SKC,0.08,VWS V14.01,2013-03-07 15:46:00,
2013-03-07 09:51:00,46.0,3.7,29.79,North,0,0.0,0.0,17,0.00,,SKC,0.08,VWS V14.01,2013-03-07 15:51:00,
2013-03-07 09:56:00,46.0,3.7,29.79,North,0,0.0,0.0,17,0.00,,SKC,0.08,VWS V14.01,2013-03-07 15:56:00,
2013-03-07 10:01:00,45.1,2.9,29.79,North,0,0.0,0.0,17,0.00,,SKC,0.08,VWS V14.01,2013-03-07 16:01:00,
2013-03-07 10:06:00,43.5,2.8,29.76,North,0,0.0,0.0,18,0.00,,SKC,0.08,VWS V14.01,2013-03-07 16:06:00,
2013-03-07 10:11:00,45.1,2.9,29.76,North,0,0.0,0.0,17,0.00,,SKC,0.08,VWS V14.01,2013-03-07 16:11:00,
2013-03-07 10:16:00,45.5,3.2,29.76,North,0,0.0,0.0,17,0.00,,SKC,0.08,VWS V14.01,2013-03-07 16:16:00,
2013-03-07 10:21:00,45.9,3.5,29.76,North,0,0.0,0.0,17,0.00,,SKC,0.08,VWS V14.01,2013-03-07 16:21:00,
2013-03-07 10:26:00,45.5,3.2,29.76,North,0,0.0,0.0,17,0.00,,SKC,0.08,VWS V14.01,2013-03-07 16:26:00,
2013-03-07 10:31:00,47.8,5.2,29.76,North,0,0.0,0.0,17,0.00,,SKC,0.08,VWS V14.01,2013-03-07 16:31:00,
2013-03-07 10:36:00,48.4,4.3,29.76,North,0,0.0,0.0,16,0.00,,SKC,0.08,VWS V14.01,2013-03-07 16:36:00,
2013-03-07 10:41:00,48.6,4.4,29.76,North,0,0.0,0.0,16,0.00,,SKC,0.12,VWS V14.01,2013-03-07 16:41:00,
2013-03-07 10:46:00,48.4,4.3,29.76,North,0,0.0,0.0,16,0.00,,SKC,0.12,VWS V14.01,2013-03-07 16:46:00,
2013-03-07 10:51:00,50.0,5.6,29.74,North,0,0.0,0.0,16,0.00,,SKC,0.12,VWS V14.01,2013-03-07 16:51:00,
2013-03-07 10:56:00,50.5,6.0,29.74,North,0,0.0,0.0,16,0.00,,SKC,0.12,VWS V14.01,2013-03-07 16:56:00,
2013-03-07 11:01:00,47.1,4.6,29.74,North,0,0.0,0.0,17,0.00,,SKC,0.12,VWS V14.01,2013-03-07 17:01:00,
2013-03-07 11:06:00,46.4,4.0,29.74,North,0,0.0,0.0,17,0.00,,SKC,0.12,VWS V14.01,2013-03-07 17:06:00,
2013-03-07 11:11:00,45.3,3.1,29.74,North,0,0.0,0.0,17,0.00,,SKC,0.12,VWS V14.01,2013-03-07 17:11:00,
2013-03-07 11:16:00,47.5,4.8,29.74,North,0,0.0,0.0,17,0.00,,SKC,0.12,VWS V14.01,2013-03-07 17:16:00,
2013-03-07 11:21:00,50.4,5.9,29.74,North,0,0.0,0.0,16,0.00,,SKC,0.12,VWS V14.01,2013-03-07 17:21:00,
2013-03-07 11:26:00,48.6,4.4,29.74,North,0,0.0,0.0,16,0.00,,SKC,0.12,VWS V14.01,2013-03-07 17:26:00,
2013-03-07 11:31:00,48.6,4.4,29.74,North,0,0.0,0.0,16,0.00,,SKC,0.12,VWS V14.01,2013-03-07 17:31:00,
2013-03-07 11:36:00,49.1,4.9,29.76,North,0,0.0,0.0,16,0.00,,SKC,0.12,VWS V14.01,2013-03-07 17:36:00,
2013-03-07 11:41:00,48.7,4.6,29.76,North,0,0.0,0.0,16,0.00,,SKC,0.12,VWS V14.01,2013-03-07 17:41:00,
2013-03-07 11:46:00,46.6,4.1,29.76,North,0,0.0,0.0,17,0.00,,SKC,0.12,VWS V14.01,2013-03-07 17:46:00,
2013-03-07 11:51:00,49.1,4.9,29.74,North,0,0.0,0.0,16,0.00,,SKC,0.12,VWS V14.01,2013-03-07 17:51:00,
2013-03-07 11:56:00,48.7,4.6,29.74,North,0,0.0,0.0,16,0.00,,SKC,0.12,VWS V14.01,2013-03-07 17:56:00,
2013-03-07 12:01:00,48.2,4.1,29.74,North,0,0.0,0.0,16,0.00,,SKC,0.12,VWS V14.01,2013-03-07 18:01:00,
2013-03-07 12:06:00,48.7,4.6,29.74,North,0,0.0,0.0,16,0.00,,SKC,0.12,VWS V14.01,2013-03-07 18:06:00,
2013-03-07 12:11:00,48.6,4.4,29.74,North,0,0.0,0.0,16,0.00,,SKC,0.12,VWS V14.01,2013-03-07 18:11:00,
2013-03-07 12:16:00,48.4,4.3,29.74,North,0,0.0,0.0,16,0.00,,SKC,0.12,VWS V14.01,2013-03-07 18:16:00,
2013-03-07 12:21:00,49.3,5.0,29.74,North,0,0.0,0.0,16,0.00,,SKC,0.12,VWS V14.01,2013-03-07 18:21:00,
2013-03-07 12:26:00,48.6,4.4,29.74,North,0,0.0,0.0,16,0.00,,SKC,0.12,VWS V14.01,2013-03-07 18:26:00,
2013-03-07 12:31:00,49.1,4.9,29.74,North,0,0.0,0.0,16,0.00,,SKC,0.12,VWS V14.01,2013-03-07 18:31:00,
2013-03-07 12:36:00,49.1,4.9,29.71,North,0,0.0,0.0,16,0.00,,SKC,0.12,VWS V14.01,2013-03-07 18:36:00,
2013-03-07 12:41:00,50.4,5.9,29.71,North,0,0.0,0.0,16,0.00,,SKC,0.12,VWS V14.01,2013-03-07 18:41:00,
2013-03-07 12:46:00,49.3,5.0,29.71,North,0,0.0,0.0,16,0.00,,SKC,0.12,VWS V14.01,2013-03-07 18:46:00,
2013-03-07 12:51:00,49.6,5.3,29.74,North,0,0.0,0.0,16,0.00,,SKC,0.12,VWS V14.01,2013-03-07 18:51:00,
2013-03-07 12:56:00,49.8,5.4,29.74,North,0,0.0,0.0,16,0.00,,SKC,0.12,VWS V14.01,2013-03-07 18:56:00,
2013-03-07 13:01:00,50.7,6.2,29.74,North,0,0.0,0.0,16,0.00,,SKC,0.12,VWS V14.01,2013-03-07 19:01:00,
2013-03-07 13:06:00,50.0,5.6,29.74,North,0,0.0,0.0,16,0.00,,SKC,0.12,VWS V14.01,2013-03-07 19:06:00,
2013-03-07 13:11:00,48.7,4.6,29.74,North,0,0.0,0.0,16,0.00,,SKC,0.12,VWS V14.01,2013-03-07 19:11:00,
2013-03-07 15:11:00,46.6,4.1,29.74,North,0,0.0,0.0,17,0.00,,SKC,0.12,VWS V14.01,2013-03-07 21:11:00,
2013-03-07 15:16:00,46.9,4.4,29.74,North,0,0.0,0.0,17,0.00,,SKC,0.12,VWS V14.01,2013-03-07 21:16:00,
2013-03-07 15:21:00,45.1,2.9,29.74,North,0,0.0,0.0,17,0.00,,SKC,0.12,VWS V14.01,2013-03-07 21:21:00,
2013-03-07 15:26:00,43.3,2.7,29.74,North,0,0.0,0.0,18,0.00,,SKC,0.12,VWS V14.01,2013-03-07 21:26:00,
2013-03-07 15:31:00,43.3,2.7,29.74,North,0,0.0,0.0,18,0.00,,SKC,0.12,VWS V14.01,2013-03-07 21:31:00,
2013-03-07 15:36:00,43.3,2.7,29.74,North,0,0.0,0.0,18,0.00,,SKC,0.12,VWS V14.01,2013-03-07 21:36:00,
2013-03-07 15:41:00,43.5,2.8,29.74,North,0,0.0,0.0,18,0.00,,SKC,0.12,VWS V14.01,2013-03-07 21:41:00,
2013-03-07 15:46:00,41.0,0.8,29.74,North,0,0.0,0.0,18,0.00,,SKC,0.12,VWS V14.01,2013-03-07 21:46:00,
2013-03-07 15:51:00,38.7,0.0,29.76,North,0,0.0,0.0,19,0.00,,SKC,0.12,VWS V14.01,2013-03-07 21:51:00,
2013-03-07 15:56:00,37.4,-1.1,29.76,North,0,0.0,0.0,19,0.00,,SKC,0.12,VWS V14.01,2013-03-07 21:56:00,
2013-03-07 16:01:00,37.8,-0.8,29.76,North,0,0.0,0.0,19,0.00,,SKC,0.12,VWS V14.01,2013-03-07 22:01:00,
2013-03-07 16:06:00,40.6,0.5,29.71,North,0,0.0,0.0,18,0.00,,SKC,0.12,VWS V14.01,2013-03-07 22:06:00,
2013-03-07 16:11:00,41.2,0.9,29.71,North,0,0.0,0.0,18,0.00,,SKC,0.12,VWS V14.01,2013-03-07 22:11:00,
2013-03-07 16:16:00,37.9,-0.6,29.71,North,0,0.0,0.0,19,0.00,,SKC,0.12,VWS V14.01,2013-03-07 22:16:00,
2013-03-07 16:21:00,36.9,-1.5,29.74,North,0,0.0,0.0,19,0.00,,SKC,0.12,VWS V14.01,2013-03-07 22:21:00,
2013-03-07 16:26:00,36.7,-1.7,29.74,North,0,0.0,0.0,19,0.00,,SKC,0.12,VWS V14.01,2013-03-07 22:26:00,
2013-03-07 16:31:00,37.4,-1.1,29.74,North,0,0.0,0.0,19,0.00,,SKC,0.12,VWS V14.01,2013-03-07 22:31:00,
2013-03-07 16:36:00,38.5,-0.2,29.74,North,0,0.0,0.0,19,0.00,,SKC,0.12,VWS V14.01,2013-03-07 22:36:00,
2013-03-07 16:41:00,38.7,0.0,29.74,North,0,0.0,0.0,19,0.00,,SKC,0.12,VWS V14.01,2013-03-07 22:41:00,
2013-03-07 16:46:00,39.2,-0.7,29.74,North,0,0.0,0.0,18,0.00,,SKC,0.33,VWS V14.01,2013-03-07 22:46:00,
2013-03-07 16:51:00,38.8,0.1,29.74,North,0,0.0,0.0,19,0.00,,SKC,0.33,VWS V14.01,2013-03-07 22:51:00,
2013-03-07 16:56:00,38.8,0.1,29.74,North,0,0.0,0.0,19,0.00,,SKC,0.33,VWS V14.01,2013-03-07 22:56:00,
2013-03-07 17:01:00,38.3,-0.3,29.74,North,0,0.0,0.0,19,0.00,,SKC,0.33,VWS V14.01,2013-03-07 23:01:00,
2013-03-07 17:06:00,37.6,-0.9,29.74,North,0,0.0,0.0,19,0.00,,SKC,0.33,VWS V14.01,2013-03-07 23:06:00,
2013-03-07 17:11:00,36.9,-1.5,29.74,North,0,0.0,0.0,19,0.00,,SKC,0.33,VWS V14.01,2013-03-07 23:11:00,
2013-03-07 17:16:00,35.8,-2.4,29.74,North,0,0.0,0.0,19,0.00,,SKC,0.33,VWS V14.01,2013-03-07 23:16:00,
2013-03-07 17:21:00,34.9,-2.1,29.71,North,0,0.0,0.0,20,0.00,,SKC,0.33,VWS V14.01,2013-03-07 23:21:00,
2013-03-07 17:26:00,34.2,-2.7,29.71,North,0,0.0,0.0,20,0.00,,SKC,0.33,VWS V14.01,2013-03-07 23:26:00,
2013-03-07 17:31:00,33.3,-3.5,29.71,North,0,0.0,0.0,20,0.00,,SKC,0.33,VWS V14.01,2013-03-07 23:31:00,
2013-03-07 17:36:00,32.4,-4.2,29.74,North,0,0.0,0.0,20,0.00,,SKC,0.33,VWS V14.01,2013-03-07 23:36:00,
2013-03-07 17:41:00,31.3,-5.1,29.74,North,0,0.0,0.0,20,0.00,,SKC,0.33,VWS V14.01,2013-03-07 23:41:00,
2013-03-07 17:46:00,30.4,-5.9,29.74,North,0,0.0,0.0,20,0.00,,SKC,0.33,VWS V14.01,2013-03-07 23:46:00,
2013-03-07 17:51:00,29.5,-6.6,29.74,North,0,0.0,0.0,20,0.00,,SKC,0.33,VWS V14.01,2013-03-07 23:51:00,
2013-03-07 17:56:00,29.1,-6.9,29.74,North,0,0.0,0.0,20,0.00,,SKC,0.33,VWS V14.01,2013-03-07 23:56:00,
2013-03-07 18:01:00,28.4,-6.5,29.74,North,0,0.0,0.0,21,0.00,,SKC,0.33,VWS V14.01,2013-03-08 00:01:00,
2013-03-07 18:06:00,27.9,-7.0,29.74,North,0,0.0,0.0,21,0.00,,SKC,0.33,VWS V14.01,2013-03-08 00:06:00,
2013-03-07 18:11:00,27.3,-7.4,29.74,North,0,0.0,0.0,21,0.00,,SKC,0.33,VWS V14.01,2013-03-08 00:11:00,
2013-03-07 18:16:00,27.0,-7.8,29.74,North,0,0.0,0.0,21,0.00,,SKC,0.33,VWS V14.01,2013-03-08 00:16:00,
2013-03-07 18:21:00,26.8,-6.0,29.76,North,0,0.0,0.0,23,0.00,,SKC,0.33,VWS V14.01,2013-03-08 00:21:00,
2013-03-07 18:26:00,26.4,-5.5,29.76,North,0,0.0,0.0,24,0.00,,SKC,0.33,VWS V14.01,2013-03-08 00:26:00,
2013-03-07 18:31:00,26.1,-5.8,29.76,North,0,0.0,0.0,24,0.00,,SKC,0.33,VWS V14.01,2013-03-08 00:31:00,
2013-03-07 18:36:00,25.5,-6.2,29.74,North,0,0.0,0.0,24,0.00,,SKC,0.33,VWS V14.01,2013-03-08 00:36:00,
2013-03-07 18:41:00,25.2,-4.9,29.74,North,0,0.0,0.0,26,0.00,,SKC,0.33,VWS V14.01,2013-03-08 00:41:00,
2013-03-07 18:46:00,24.8,-4.4,29.74,North,0,0.0,0.0,27,0.00,,SKC,0.33,VWS V14.01,2013-03-08 00:46:00,
2013-03-07 18:51:00,24.8,-0.9,29.76,North,0,0.0,0.0,32,0.00,,SKC,0.33,VWS V14.01,2013-03-08 00:51:00,
2013-03-07 18:56:00,24.1,-1.5,29.76,North,0,0.0,0.0,32,0.00,,SKC,0.33,VWS V14.01,2013-03-08 00:56:00,
2013-03-07 19:01:00,23.5,-4.0,29.76,North,0,0.0,0.0,29,0.00,,SKC,0.33,VWS V14.01,2013-03-08 01:01:00,
2013-03-07 19:06:00,23.0,-3.8,29.76,North,0,0.0,0.0,30,0.00,,SKC,0.33,VWS V14.01,2013-03-08 01:06:00,
2013-03-07 19:11:00,22.8,-4.0,29.76,North,0,0.0,0.0,30,0.00,,SKC,0.33,VWS V14.01,2013-03-08 01:11:00,
2013-03-07 19:16:00,23.0,-1.8,29.76,North,0,0.0,0.0,33,0.00,,SKC,0.33,VWS V14.01,2013-03-08 01:16:00,
2013-03-07 19:21:00,22.5,-2.3,29.79,North,0,0.0,0.0,33,0.00,,SKC,0.33,VWS V14.01,2013-03-08 01:21:00,
2013-03-07 19:26:00,22.6,-1.5,29.79,North,0,0.0,0.0,34,0.00,,SKC,0.33,VWS V14.01,2013-03-08 01:26:00,
2013-03-07 19:31:00,22.8,-0.7,29.79,North,0,0.0,0.0,35,0.00,,SKC,0.33,VWS V14.01,2013-03-08 01:31:00,
2013-03-07 19:36:00,22.5,-1.0,29.79,North,0,0.0,0.0,35,0.00,,SKC,0.33,VWS V14.01,2013-03-08 01:36:00,
2013-03-07 19:41:00,21.9,-1.5,29.79,North,0,0.0,0.0,35,0.00,,SKC,0.33,VWS V14.01,2013-03-08 01:41:00,
2013-03-07 19:46:00,21.9,-0.9,29.79,North,0,0.0,0.0,36,0.00,,SKC,0.33,VWS V14.01,2013-03-08 01:46:00,
2013-03-07 19:51:00,21.4,-1.4,29.76,North,0,0.0,0.0,36,0.00,,SKC,0.33,VWS V14.01,2013-03-08 01:51:00,
2013-03-07 19:56:00,21.2,-0.4,29.76,North,0,0.0,0.0,38,0.00,,SKC,0.33,VWS V14.01,2013-03-08 01:56:00,
2013-03-07 20:01:00,21.2,0.7,29.76,North,0,0.0,0.0,40,0.00,,SKC,0.33,VWS V14.01,2013-03-08 02:01:00,
2013-03-07 20:06:00,21.2,1.2,29.79,North,0,0.0,0.0,41,0.00,,SKC,0.33,VWS V14.01,2013-03-08 02:06:00,
2013-03-07 20:11:00,21.2,1.7,29.79,North,0,0.0,0.0,42,0.00,,SKC,0.33,VWS V14.01,2013-03-08 02:11:00,
2013-03-07 20:16:00,20.8,1.4,29.79,North,0,0.0,0.0,42,0.00,,SKC,0.33,VWS V14.01,2013-03-08 02:16:00,
2013-03-07 20:21:00,20.7,1.2,29.79,North,0,0.0,0.0,42,0.00,,SKC,0.33,VWS V14.01,2013-03-08 02:21:00,
2013-03-07 20:26:00,20.5,1.0,29.79,North,0,0.0,0.0,42,0.00,,SKC,0.33,VWS V14.01,2013-03-08 02:26:00,
2013-03-07 20:31:00,20.3,0.4,29.79,North,0,0.0,0.0,41,0.00,,SKC,0.33,VWS V14.01,2013-03-08 02:31:00,
2013-03-07 20:36:00,20.3,0.9,29.79,North,0,0.0,0.0,42,0.00,,SKC,0.33,VWS V14.01,2013-03-08 02:36:00,
2013-03-07 20:41:00,19.9,1.1,29.79,North,0,0.0,0.0,43,0.00,,SKC,0.33,VWS V14.01,2013-03-08 02:41:00,
2013-03-07 20:46:00,19.8,0.9,29.79,North,0,0.0,0.0,43,0.00,,SKC,0.33,VWS V14.01,2013-03-08 02:46:00,
2013-03-07 20:51:00,19.8,0.9,29.79,North,0,0.0,0.0,43,0.00,,SKC,0.33,VWS V14.01,2013-03-08 02:51:00,
2013-03-07 20:56:00,19.6,0.7,29.79,North,0,0.0,0.0,43,0.00,,SKC,0.33,VWS V14.01,2013-03-08 02:56:00,
2013-03-07 21:01:00,19.4,1.1,29.79,North,0,0.0,0.0,44,0.00,,SKC,0.33,VWS V14.01,2013-03-08 03:01:00,
2013-03-07 21:06:00,19.2,0.9,29.79,North,0,0.0,0.0,44,0.00,,SKC,0.33,VWS V14.01,2013-03-08 03:06:00,
2013-03-07 21:11:00,19.0,0.7,29.79,North,0,0.0,0.0,44,0.00,,SKC,0.33,VWS V14.01,2013-03-08 03:11:00,
2013-03-07 21:16:00,18.7,0.4,29.79,North,0,0.0,0.0,44,0.00,,SKC,0.33,VWS V14.01,2013-03-08 03:16:00,
2013-03-07 21:27:00,19.0,0.7,29.79,North,0,0.0,0.0,44,0.00,,SKC,0.33,VWS V14.01,2013-03-08 03:27:00,
2013-03-07 21:32:00,18.7,0.4,29.79,North,0,0.0,0.0,44,0.00,,SKC,0.33,VWS V14.01,2013-03-08 03:32:00,
2013-03-07 21:37:00,18.5,0.2,29.79,North,0,0.0,0.0,44,0.00,,SKC,0.33,VWS V14.01,2013-03-08 03:37:00,
2013-03-07 21:42:00,18.3,0.1,29.79,North,0,0.0,0.0,44,0.00,,SKC,0.33,VWS V14.01,2013-03-08 03:42:00,
2013-03-07 21:47:00,17.8,-0.4,29.79,North,0,0.0,0.0,44,0.00,,SKC,0.33,VWS V14.01,2013-03-08 03:47:00,
2013-03-07 21:52:00,17.6,-0.6,29.76,North,0,0.0,0.0,44,0.00,,SKC,0.33,VWS V14.01,2013-03-08 03:52:00,
2013-03-07 21:57:00,17.4,-0.3,29.76,North,0,0.0,0.0,45,0.00,,SKC,0.33,VWS V14.01,2013-03-08 03:57:00,
2013-03-07 22:02:00,17.2,-0.9,29.76,North,0,0.0,0.0,44,0.00,,SKC,0.33,VWS V14.01,2013-03-08 04:02:00,
2013-03-07 22:07:00,17.1,-0.6,29.79,North,0,0.0,0.0,45,0.00,,SKC,0.33,VWS V14.01,2013-03-08 04:07:00,
2013-03-07 22:12:00,16.9,-0.8,29.79,North,0,0.0,0.0,45,0.00,,SKC,0.33,VWS V14.01,2013-03-08 04:12:00,
2013-03-07 22:17:00,16.7,-0.9,29.79,North,0,0.0,0.0,45,0.00,,SKC,0.33,VWS V14.01,2013-03-08 04:17:00,
2013-03-07 22:22:00,16.5,-1.1,29.79,North,0,0.0,0.0,45,0.00,,SKC,0.33,VWS V14.01,2013-03-08 04:22:00,
2013-03-07 22:27:00,16.2,-1.4,29.79,North,0,0.0,0.0,45,0.00,,SKC,0.33,VWS V14.01,2013-03-08 04:27:00,
2013-03-07 22:31:00,15.8,-1.8,29.79,North,0,0.0,0.0,45,0.00,,SKC,0.33,VWS V14.01,2013-03-08 04:31:00,
2013-03-07 22:36:00,15.6,-1.9,29.79,North,0,0.0,0.0,45,0.00,,SKC,0.33,VWS V14.01,2013-03-08 04:36:00,
2013-03-07 22:41:00,15.3,-2.3,29.79,North,0,0.0,0.0,45,0.00,,SKC,0.33,VWS V14.01,2013-03-08 04:41:00,
2013-03-07 22:46:00,15.4,-2.1,29.79,North,0,0.0,0.0,45,0.00,,SKC,0.33,VWS V14.01,2013-03-08 04:46:00,
2013-03-07 22:51:00,15.3,-2.3,29.79,North,0,0.0,0.0,45,0.00,,SKC,0.33,VWS V14.01,2013-03-08 04:51:00,
2013-03-07 22:56:00,15.1,-2.4,29.79,North,0,0.0,0.0,45,0.00,,SKC,0.33,VWS V14.01,2013-03-08 04:56:00,
2013-03-07 23:00:00,15.3,-1.8,29.79,North,0,0.0,0.0,46,0.00,,SKC,0.33,VWS V14.01,2013-03-08 05:00:00,
2013-03-07 23:05:00,14.9,-2.1,29.79,North,0,0.0,0.0,46,0.00,,SKC,0.33,VWS V14.01,2013-03-08 05:05:00,
2013-03-07 23:10:00,14.5,-2.5,29.79,North,0,0.0,0.0,46,0.00,,SKC,0.33,VWS V14.01,2013-03-08 05:10:00,
2013-03-07 23:15:00,15.1,-1.5,29.79,North,0,0.0,0.0,47,0.00,,SKC,0.33,VWS V14.01,2013-03-08 05:15:00,
2013-03-07 23:20:00,15.1,-1.1,29.79,North,0,0.0,0.0,48,0.00,,SKC,0.33,VWS V14.01,2013-03-08 05:20:00,
2013-03-07 23:25:00,14.9,-1.2,29.79,North,0,0.0,0.0,48,0.00,,SKC,0.33,VWS V14.01,2013-03-08 05:25:00,
2013-03-07 23:30:00,15.3,-1.3,29.79,North,0,0.0,0.0,47,0.00,,SKC,0.33,VWS V14.01,2013-03-08 05:30:00,
2013-03-07 23:35:00,14.7,-1.8,29.76,North,0,0.0,0.0,47,0.00,,SKC,0.33,VWS V14.01,2013-03-08 05:35:00,
2013-03-07 23:40:00,14.4,-2.2,29.76,North,0,0.0,0.0,47,0.00,,SKC,0.33,VWS V14.01,2013-03-08 05:40:00,
2013-03-07 23:45:00,14.4,-2.2,29.76,North,0,0.0,0.0,47,0.00,,SKC,0.33,VWS V14.01,2013-03-08 05:45:00,
2013-03-07 23:50:00,14.2,-1.9,29.79,North,0,0.0,0.0,48,0.00,,SKC,0.33,VWS V14.01,2013-03-08 05:50:00,
2013-03-07 23:55:00,13.6,-2.4,29.79,North,0,0.0,0.0,48,0.00,,SKC,0.33,VWS V14.01,2013-03-08 05:55:00,